sensor_id;sensor_type;location;lat;lon;timestamp;P1;durP1;ratioP1;P2;durP2;ratioP2
52586;SDS011;38480;52.724;6.436;2023-06-22T00:01:51;45.17;;;30.83;;
52586;SDS011;38480;52.724;6.436;2023-06-22T00:04:17;44.30;;;30.07;;
52586;SDS011;38480;52.724;6.436;2023-06-22T00:06:43;43.77;;;31.87;;
52586;SDS011;38480;52.724;6.436;2023-06-22T00:09:09;47.67;;;32.87;;
52586;SDS011;38480;52.724;6.436;2023-06-22T00:11:36;66.30;;;41.53;;
52586;SDS011;38480;52.724;6.436;2023-06-22T00:14:02;59.97;;;41.00;;
52586;SDS011;38480;52.724;6.436;2023-06-22T00:16:28;59.63;;;39.33;;
52586;SDS011;38480;52.724;6.436;2023-06-22T00:18:54;75.90;;;48.33;;
52586;SDS011;38480;52.724;6.436;2023-06-22T00:21:21;68.93;;;46.67;;
52586;SDS011;38480;52.724;6.436;2023-06-22T00:23:47;70.77;;;44.67;;
52586;SDS011;38480;52.724;6.436;2023-06-22T00:26:13;79.93;;;48.83;;
52586;SDS011;38480;52.724;6.436;2023-06-22T00:28:39;81.23;;;50.87;;
52586;SDS011;38480;52.724;6.436;2023-06-22T00:31:05;77.13;;;48.93;;
52586;SDS011;38480;52.724;6.436;2023-06-22T00:33:31;82.20;;;49.77;;
52586;SDS011;38480;52.724;6.436;2023-06-22T00:35:57;77.40;;;49.47;;
52586;SDS011;38480;52.724;6.436;2023-06-22T00:38:23;76.67;;;50.53;;
52586;SDS011;38480;52.724;6.436;2023-06-22T00:40:49;84.67;;;51.13;;
52586;SDS011;38480;52.724;6.436;2023-06-22T00:43:15;97.53;;;57.33;;
52586;SDS011;38480;52.724;6.436;2023-06-22T00:45:41;93.43;;;56.07;;
52586;SDS011;38480;52.724;6.436;2023-06-22T00:48:07;98.60;;;56.63;;
52586;SDS011;38480;52.724;6.436;2023-06-22T00:50:34;95.70;;;56.27;;
52586;SDS011;38480;52.724;6.436;2023-06-22T00:53:04;100.30;;;58.27;;
52586;SDS011;38480;52.724;6.436;2023-06-22T00:55:37;90.53;;;54.88;;
52586;SDS011;38480;52.724;6.436;2023-06-22T00:58:04;94.30;;;57.23;;
52586;SDS011;38480;52.724;6.436;2023-06-22T01:00:30;96.87;;;54.13;;
52586;SDS011;38480;52.724;6.436;2023-06-22T01:02:57;86.57;;;53.20;;
52586;SDS011;38480;52.724;6.436;2023-06-22T01:05:23;93.87;;;54.10;;
52586;SDS011;38480;52.724;6.436;2023-06-22T01:07:54;80.47;;;50.00;;
52586;SDS011;38480;52.724;6.436;2023-06-22T01:12:50;72.67;;;47.47;;
52586;SDS011;38480;52.724;6.436;2023-06-22T01:15:25;78.57;;;47.23;;
52586;SDS011;38480;52.724;6.436;2023-06-22T01:17:52;85.70;;;48.13;;
52586;SDS011;38480;52.724;6.436;2023-06-22T01:20:18;81.30;;;48.73;;
52586;SDS011;38480;52.724;6.436;2023-06-22T01:25:45;103.90;;;62.40;;
52586;SDS011;38480;52.724;6.436;2023-06-22T01:30:45;105.50;;;59.90;;
52586;SDS011;38480;52.724;6.436;2023-06-22T01:33:12;93.87;;;56.33;;
52586;SDS011;38480;52.724;6.436;2023-06-22T01:35:38;109.63;;;62.70;;
52586;SDS011;38480;52.724;6.436;2023-06-22T01:38:05;109.20;;;63.23;;
52586;SDS011;38480;52.724;6.436;2023-06-22T01:40:32;93.20;;;55.63;;
52586;SDS011;38480;52.724;6.436;2023-06-22T01:42:59;84.83;;;51.80;;
52586;SDS011;38480;52.724;6.436;2023-06-22T01:45:26;84.23;;;52.63;;
52586;SDS011;38480;52.724;6.436;2023-06-22T01:47:53;77.50;;;49.43;;
52586;SDS011;38480;52.724;6.436;2023-06-22T01:50:19;92.23;;;59.43;;
52586;SDS011;38480;52.724;6.436;2023-06-22T01:52:46;87.60;;;55.77;;
52586;SDS011;38480;52.724;6.436;2023-06-22T01:55:12;74.27;;;49.90;;
52586;SDS011;38480;52.724;6.436;2023-06-22T01:57:38;94.83;;;55.50;;
52586;SDS011;38480;52.724;6.436;2023-06-22T02:00:09;93.13;;;56.17;;
52586;SDS011;38480;52.724;6.436;2023-06-22T02:02:38;123.97;;;69.33;;
52586;SDS011;38480;52.724;6.436;2023-06-22T02:05:09;169.93;;;62.13;;
52586;SDS011;38480;52.724;6.436;2023-06-22T02:07:39;118.10;;;55.13;;
52586;SDS011;38480;52.724;6.436;2023-06-22T02:10:07;82.57;;;51.40;;
52586;SDS011;38480;52.724;6.436;2023-06-22T02:12:33;89.53;;;54.63;;
52586;SDS011;38480;52.724;6.436;2023-06-22T02:15:00;67.10;;;45.73;;
52586;SDS011;38480;52.724;6.436;2023-06-22T02:17:27;82.03;;;51.17;;
52586;SDS011;38480;52.724;6.436;2023-06-22T02:19:53;74.33;;;51.33;;
52586;SDS011;38480;52.724;6.436;2023-06-22T02:22:19;128.10;;;72.43;;
52586;SDS011;38480;52.724;6.436;2023-06-22T02:24:45;116.93;;;64.17;;
52586;SDS011;38480;52.724;6.436;2023-06-22T02:27:11;128.70;;;71.27;;
52586;SDS011;38480;52.724;6.436;2023-06-22T02:29:37;101.23;;;60.37;;
52586;SDS011;38480;52.724;6.436;2023-06-22T02:32:03;654.40;;;81.83;;
52586;SDS011;38480;52.724;6.436;2023-06-22T02:34:29;154.00;;;62.00;;
52586;SDS011;38480;52.724;6.436;2023-06-22T02:36:55;115.53;;;50.53;;
52586;SDS011;38480;52.724;6.436;2023-06-22T02:39:22;76.67;;;44.03;;
52586;SDS011;38480;52.724;6.436;2023-06-22T02:41:49;70.83;;;47.50;;
52586;SDS011;38480;52.724;6.436;2023-06-22T02:44:15;78.20;;;51.37;;
52586;SDS011;38480;52.724;6.436;2023-06-22T02:46:41;75.43;;;48.77;;
52586;SDS011;38480;52.724;6.436;2023-06-22T02:49:08;61.83;;;43.03;;
52586;SDS011;38480;52.724;6.436;2023-06-22T02:51:34;80.27;;;50.03;;
52586;SDS011;38480;52.724;6.436;2023-06-22T02:54:00;64.67;;;43.77;;
52586;SDS011;38480;52.724;6.436;2023-06-22T02:56:28;84.43;;;52.07;;
52586;SDS011;38480;52.724;6.436;2023-06-22T02:58:55;92.33;;;56.63;;
52586;SDS011;38480;52.724;6.436;2023-06-22T03:01:25;80.13;;;51.60;;
52586;SDS011;38480;52.724;6.436;2023-06-22T03:03:52;116.70;;;65.67;;
52586;SDS011;38480;52.724;6.436;2023-06-22T03:06:19;134.50;;;64.30;;
52586;SDS011;38480;52.724;6.436;2023-06-22T03:08:49;133.53;;;61.57;;
52586;SDS011;38480;52.724;6.436;2023-06-22T03:11:15;319.10;;;61.47;;
52586;SDS011;38480;52.724;6.436;2023-06-22T03:13:41;188.17;;;57.60;;
52586;SDS011;38480;52.724;6.436;2023-06-22T03:16:07;70.03;;;46.20;;
52586;SDS011;38480;52.724;6.436;2023-06-22T03:18:33;100.07;;;49.97;;
52586;SDS011;38480;52.724;6.436;2023-06-22T03:20:59;115.67;;;45.20;;
52586;SDS011;38480;52.724;6.436;2023-06-22T03:23:27;123.50;;;52.53;;
52586;SDS011;38480;52.724;6.436;2023-06-22T03:25:53;101.93;;;53.30;;
52586;SDS011;38480;52.724;6.436;2023-06-22T03:28:20;315.43;;;78.00;;
52586;SDS011;38480;52.724;6.436;2023-06-22T03:30:47;67.53;;;48.27;;
52586;SDS011;38480;52.724;6.436;2023-06-22T03:33:13;61.43;;;46.97;;
52586;SDS011;38480;52.724;6.436;2023-06-22T03:35:39;70.40;;;47.63;;
52586;SDS011;38480;52.724;6.436;2023-06-22T03:38:05;76.63;;;50.17;;
52586;SDS011;38480;52.724;6.436;2023-06-22T03:40:31;78.83;;;51.07;;
52586;SDS011;38480;52.724;6.436;2023-06-22T03:42:57;83.37;;;54.40;;
52586;SDS011;38480;52.724;6.436;2023-06-22T03:45:23;74.43;;;50.83;;
52586;SDS011;38480;52.724;6.436;2023-06-22T03:47:49;75.13;;;48.13;;
52586;SDS011;38480;52.724;6.436;2023-06-22T03:50:15;93.33;;;56.07;;
52586;SDS011;38480;52.724;6.436;2023-06-22T03:52:41;94.40;;;53.17;;
52586;SDS011;38480;52.724;6.436;2023-06-22T03:55:07;370.27;;;54.97;;
52586;SDS011;38480;52.724;6.436;2023-06-22T03:57:33;222.83;;;49.40;;
52586;SDS011;38480;52.724;6.436;2023-06-22T04:00:01;191.47;;;47.90;;
52586;SDS011;38480;52.724;6.436;2023-06-22T04:02:30;82.03;;;46.40;;
52586;SDS011;38480;52.724;6.436;2023-06-22T04:04:56;48.03;;;37.67;;
52586;SDS011;38480;52.724;6.436;2023-06-22T04:07:22;69.63;;;47.80;;
52586;SDS011;38480;52.724;6.436;2023-06-22T04:09:48;110.80;;;61.93;;
52586;SDS011;38480;52.724;6.436;2023-06-22T04:12:14;101.13;;;59.63;;
52586;SDS011;38480;52.724;6.436;2023-06-22T04:14:40;93.57;;;57.67;;
52586;SDS011;38480;52.724;6.436;2023-06-22T04:17:06;120.23;;;63.37;;
52586;SDS011;38480;52.724;6.436;2023-06-22T04:19:32;141.23;;;65.40;;
52586;SDS011;38480;52.724;6.436;2023-06-22T04:21:58;131.23;;;69.20;;
52586;SDS011;38480;52.724;6.436;2023-06-22T04:24:24;123.20;;;67.87;;
52586;SDS011;38480;52.724;6.436;2023-06-22T04:26:51;133.50;;;73.97;;
52586;SDS011;38480;52.724;6.436;2023-06-22T04:29:19;140.30;;;74.60;;
52586;SDS011;38480;52.724;6.436;2023-06-22T04:31:45;136.87;;;71.87;;
52586;SDS011;38480;52.724;6.436;2023-06-22T04:34:15;113.43;;;66.70;;
52586;SDS011;38480;52.724;6.436;2023-06-22T04:36:42;127.53;;;70.60;;
52586;SDS011;38480;52.724;6.436;2023-06-22T04:39:11;120.10;;;68.77;;
52586;SDS011;38480;52.724;6.436;2023-06-22T04:41:38;173.73;;;82.90;;
52586;SDS011;38480;52.724;6.436;2023-06-22T04:44:17;159.80;;;79.50;;
52586;SDS011;38480;52.724;6.436;2023-06-22T04:46:48;157.63;;;81.17;;
52586;SDS011;38480;52.724;6.436;2023-06-22T04:49:18;160.43;;;81.90;;
52586;SDS011;38480;52.724;6.436;2023-06-22T04:51:44;175.77;;;87.73;;
52586;SDS011;38480;52.724;6.436;2023-06-22T04:54:10;149.00;;;77.90;;
52586;SDS011;38480;52.724;6.436;2023-06-22T04:56:37;160.13;;;78.63;;
52586;SDS011;38480;52.724;6.436;2023-06-22T04:59:06;170.67;;;85.33;;
52586;SDS011;38480;52.724;6.436;2023-06-22T05:01:32;182.10;;;88.63;;
52586;SDS011;38480;52.724;6.436;2023-06-22T05:04:00;191.00;;;95.50;;
52586;SDS011;38480;52.724;6.436;2023-06-22T05:06:27;214.30;;;99.07;;
52586;SDS011;38480;52.724;6.436;2023-06-22T05:08:54;218.47;;;98.37;;
52586;SDS011;38480;52.724;6.436;2023-06-22T05:11:26;207.67;;;97.47;;
52586;SDS011;38480;52.724;6.436;2023-06-22T05:13:53;214.17;;;102.07;;
52586;SDS011;38480;52.724;6.436;2023-06-22T05:16:19;231.73;;;104.83;;
52586;SDS011;38480;52.724;6.436;2023-06-22T05:18:50;212.20;;;102.83;;
52586;SDS011;38480;52.724;6.436;2023-06-22T05:21:16;187.77;;;98.47;;
52586;SDS011;38480;52.724;6.436;2023-06-22T05:23:42;214.70;;;101.83;;
52586;SDS011;38480;52.724;6.436;2023-06-22T05:26:08;211.47;;;99.30;;
52586;SDS011;38480;52.724;6.436;2023-06-22T05:28:35;198.40;;;95.33;;
52586;SDS011;38480;52.724;6.436;2023-06-22T05:31:01;167.17;;;88.40;;
52586;SDS011;38480;52.724;6.436;2023-06-22T05:33:27;179.00;;;91.13;;
52586;SDS011;38480;52.724;6.436;2023-06-22T05:35:53;180.13;;;92.47;;
52586;SDS011;38480;52.724;6.436;2023-06-22T05:38:19;175.43;;;90.50;;
52586;SDS011;38480;52.724;6.436;2023-06-22T05:40:45;156.40;;;85.43;;
52586;SDS011;38480;52.724;6.436;2023-06-22T05:43:11;135.97;;;78.53;;
52586;SDS011;38480;52.724;6.436;2023-06-22T05:45:37;132.67;;;77.10;;
52586;SDS011;38480;52.724;6.436;2023-06-22T05:48:03;117.23;;;69.00;;
52586;SDS011;38480;52.724;6.436;2023-06-22T05:50:29;129.40;;;75.30;;
52586;SDS011;38480;52.724;6.436;2023-06-22T05:52:55;122.67;;;72.73;;
52586;SDS011;38480;52.724;6.436;2023-06-22T05:55:21;121.23;;;73.33;;
52586;SDS011;38480;52.724;6.436;2023-06-22T05:57:47;117.33;;;69.83;;
52586;SDS011;38480;52.724;6.436;2023-06-22T06:00:13;104.53;;;67.17;;
52586;SDS011;38480;52.724;6.436;2023-06-22T06:02:40;97.53;;;61.63;;
52586;SDS011;38480;52.724;6.436;2023-06-22T06:05:09;89.53;;;61.80;;
52586;SDS011;38480;52.724;6.436;2023-06-22T06:07:35;99.93;;;62.80;;
52586;SDS011;38480;52.724;6.436;2023-06-22T06:10:02;93.13;;;60.07;;
52586;SDS011;38480;52.724;6.436;2023-06-22T06:12:29;86.60;;;57.50;;
52586;SDS011;38480;52.724;6.436;2023-06-22T06:14:55;87.20;;;58.17;;
52586;SDS011;38480;52.724;6.436;2023-06-22T06:17:21;80.80;;;54.00;;
52586;SDS011;38480;52.724;6.436;2023-06-22T06:19:47;76.93;;;47.70;;
52586;SDS011;38480;52.724;6.436;2023-06-22T06:22:13;63.97;;;46.47;;
52586;SDS011;38480;52.724;6.436;2023-06-22T06:24:39;60.80;;;44.93;;
52586;SDS011;38480;52.724;6.436;2023-06-22T06:27:05;60.00;;;45.67;;
52586;SDS011;38480;52.724;6.436;2023-06-22T06:29:32;50.40;;;40.27;;
52586;SDS011;38480;52.724;6.436;2023-06-22T06:31:58;51.07;;;41.00;;
52586;SDS011;38480;52.724;6.436;2023-06-22T06:34:24;50.97;;;39.97;;
52586;SDS011;38480;52.724;6.436;2023-06-22T06:36:50;44.07;;;36.07;;
52586;SDS011;38480;52.724;6.436;2023-06-22T06:39:16;47.63;;;37.33;;
52586;SDS011;38480;52.724;6.436;2023-06-22T06:41:42;45.60;;;36.97;;
52586;SDS011;38480;52.724;6.436;2023-06-22T06:44:08;38.27;;;32.67;;
52586;SDS011;38480;52.724;6.436;2023-06-22T06:46:34;37.80;;;32.07;;
52586;SDS011;38480;52.724;6.436;2023-06-22T06:49:00;36.33;;;30.97;;
52586;SDS011;38480;52.724;6.436;2023-06-22T06:51:26;32.03;;;28.47;;
52586;SDS011;38480;52.724;6.436;2023-06-22T06:53:52;32.00;;;28.10;;
52586;SDS011;38480;52.724;6.436;2023-06-22T06:56:18;32.27;;;28.77;;
52586;SDS011;38480;52.724;6.436;2023-06-22T06:58:44;32.73;;;26.37;;
52586;SDS011;38480;52.724;6.436;2023-06-22T07:01:11;29.03;;;24.50;;
52586;SDS011;38480;52.724;6.436;2023-06-22T07:03:37;30.50;;;25.97;;
52586;SDS011;38480;52.724;6.436;2023-06-22T07:06:03;27.57;;;24.60;;
52586;SDS011;38480;52.724;6.436;2023-06-22T07:08:29;27.73;;;22.97;;
52586;SDS011;38480;52.724;6.436;2023-06-22T07:10:55;23.90;;;20.80;;
52586;SDS011;38480;52.724;6.436;2023-06-22T07:13:21;24.33;;;20.07;;
52586;SDS011;38480;52.724;6.436;2023-06-22T07:15:47;21.13;;;18.93;;
52586;SDS011;38480;52.724;6.436;2023-06-22T07:18:13;22.37;;;19.23;;
52586;SDS011;38480;52.724;6.436;2023-06-22T07:20:39;21.77;;;19.47;;
52586;SDS011;38480;52.724;6.436;2023-06-22T07:23:06;19.17;;;16.63;;
52586;SDS011;38480;52.724;6.436;2023-06-22T07:25:32;20.03;;;16.93;;
52586;SDS011;38480;52.724;6.436;2023-06-22T07:27:59;20.93;;;16.20;;
52586;SDS011;38480;52.724;6.436;2023-06-22T07:30:26;19.43;;;17.37;;
52586;SDS011;38480;52.724;6.436;2023-06-22T07:32:52;20.67;;;15.97;;
52586;SDS011;38480;52.724;6.436;2023-06-22T07:35:18;18.53;;;16.03;;
52586;SDS011;38480;52.724;6.436;2023-06-22T07:37:44;21.27;;;14.77;;
52586;SDS011;38480;52.724;6.436;2023-06-22T07:40:10;17.33;;;13.93;;
52586;SDS011;38480;52.724;6.436;2023-06-22T07:42:36;17.47;;;14.70;;
52586;SDS011;38480;52.724;6.436;2023-06-22T07:45:03;15.17;;;13.57;;
52586;SDS011;38480;52.724;6.436;2023-06-22T07:47:29;14.57;;;11.77;;
52586;SDS011;38480;52.724;6.436;2023-06-22T07:49:58;15.17;;;13.00;;
52586;SDS011;38480;52.724;6.436;2023-06-22T07:52:26;14.00;;;11.73;;
52586;SDS011;38480;52.724;6.436;2023-06-22T07:54:52;15.70;;;13.30;;
52586;SDS011;38480;52.724;6.436;2023-06-22T07:57:18;13.57;;;10.43;;
52586;SDS011;38480;52.724;6.436;2023-06-22T07:59:44;11.53;;;10.10;;
52586;SDS011;38480;52.724;6.436;2023-06-22T08:02:10;12.93;;;10.27;;
52586;SDS011;38480;52.724;6.436;2023-06-22T08:04:36;10.18;;;9.13;;
52586;SDS011;38480;52.724;6.436;2023-06-22T08:07:02;14.15;;;10.32;;
52586;SDS011;38480;52.724;6.436;2023-06-22T08:09:29;11.05;;;9.35;;
52586;SDS011;38480;52.724;6.436;2023-06-22T08:11:56;10.25;;;9.13;;
52586;SDS011;38480;52.724;6.436;2023-06-22T08:14:25;10.23;;;8.10;;
52586;SDS011;38480;52.724;6.436;2023-06-22T08:16:51;13.02;;;8.48;;
52586;SDS011;38480;52.724;6.436;2023-06-22T08:19:17;16.25;;;9.60;;
52586;SDS011;38480;52.724;6.436;2023-06-22T08:21:43;10.93;;;7.88;;
52586;SDS011;38480;52.724;6.436;2023-06-22T08:24:09;9.35;;;8.35;;
52586;SDS011;38480;52.724;6.436;2023-06-22T08:26:35;10.10;;;7.70;;
52586;SDS011;38480;52.724;6.436;2023-06-22T08:29:05;12.60;;;6.85;;
52586;SDS011;38480;52.724;6.436;2023-06-22T08:31:31;10.45;;;7.88;;
52586;SDS011;38480;52.724;6.436;2023-06-22T08:34:03;10.63;;;7.43;;
52586;SDS011;38480;52.724;6.436;2023-06-22T08:36:29;8.63;;;6.93;;
52586;SDS011;38480;52.724;6.436;2023-06-22T08:38:58;9.25;;;7.47;;
52586;SDS011;38480;52.724;6.436;2023-06-22T08:41:26;10.68;;;6.82;;
52586;SDS011;38480;52.724;6.436;2023-06-22T08:43:52;9.48;;;6.32;;
52586;SDS011;38480;52.724;6.436;2023-06-22T08:46:19;9.55;;;7.03;;
52586;SDS011;38480;52.724;6.436;2023-06-22T08:48:48;10.82;;;6.32;;
52586;SDS011;38480;52.724;6.436;2023-06-22T08:51:15;10.95;;;6.72;;
52586;SDS011;38480;52.724;6.436;2023-06-22T08:53:42;9.25;;;6.30;;
52586;SDS011;38480;52.724;6.436;2023-06-22T08:56:10;12.25;;;7.30;;
52586;SDS011;38480;52.724;6.436;2023-06-22T08:58:36;8.70;;;6.32;;
52586;SDS011;38480;52.724;6.436;2023-06-22T09:01:01;9.05;;;6.57;;
52586;SDS011;38480;52.724;6.436;2023-06-22T09:03:28;9.40;;;6.20;;
52586;SDS011;38480;52.724;6.436;2023-06-22T09:05:54;7.28;;;5.95;;
52586;SDS011;38480;52.724;6.436;2023-06-22T09:08:20;7.10;;;5.82;;
52586;SDS011;38480;52.724;6.436;2023-06-22T09:10:46;8.65;;;5.53;;
52586;SDS011;38480;52.724;6.436;2023-06-22T09:13:12;9.43;;;5.63;;
52586;SDS011;38480;52.724;6.436;2023-06-22T09:15:38;11.52;;;6.57;;
52586;SDS011;38480;52.724;6.436;2023-06-22T09:18:04;8.38;;;5.07;;
52586;SDS011;38480;52.724;6.436;2023-06-22T09:20:30;10.00;;;6.55;;
52586;SDS011;38480;52.724;6.436;2023-06-22T09:22:56;6.25;;;5.10;;
52586;SDS011;38480;52.724;6.436;2023-06-22T09:25:23;7.53;;;5.72;;
52586;SDS011;38480;52.724;6.436;2023-06-22T09:27:49;8.50;;;6.30;;
52586;SDS011;38480;52.724;6.436;2023-06-22T09:30:15;8.95;;;5.55;;
52586;SDS011;38480;52.724;6.436;2023-06-22T09:32:41;7.30;;;5.63;;
52586;SDS011;38480;52.724;6.436;2023-06-22T09:35:08;8.68;;;6.22;;
52586;SDS011;38480;52.724;6.436;2023-06-22T09:37:34;9.30;;;7.28;;
52586;SDS011;38480;52.724;6.436;2023-06-22T09:40:01;6.82;;;4.97;;
52586;SDS011;38480;52.724;6.436;2023-06-22T09:42:31;5.95;;;5.10;;
52586;SDS011;38480;52.724;6.436;2023-06-22T09:45:00;6.80;;;5.00;;
52586;SDS011;38480;52.724;6.436;2023-06-22T09:47:26;8.65;;;5.68;;
52586;SDS011;38480;52.724;6.436;2023-06-22T09:49:52;6.95;;;5.40;;
52586;SDS011;38480;52.724;6.436;2023-06-22T09:52:20;8.45;;;5.93;;
52586;SDS011;38480;52.724;6.436;2023-06-22T09:54:46;9.45;;;6.20;;
52586;SDS011;38480;52.724;6.436;2023-06-22T09:57:12;7.65;;;5.38;;
52586;SDS011;38480;52.724;6.436;2023-06-22T09:59:38;6.72;;;5.32;;
52586;SDS011;38480;52.724;6.436;2023-06-22T10:02:07;7.68;;;5.35;;
52586;SDS011;38480;52.724;6.436;2023-06-22T10:04:34;9.30;;;5.20;;
52586;SDS011;38480;52.724;6.436;2023-06-22T10:07:00;9.57;;;6.65;;
52586;SDS011;38480;52.724;6.436;2023-06-22T10:09:26;7.63;;;5.13;;
52586;SDS011;38480;52.724;6.436;2023-06-22T10:11:52;8.02;;;5.45;;
52586;SDS011;38480;52.724;6.436;2023-06-22T10:14:18;9.43;;;5.60;;
52586;SDS011;38480;52.724;6.436;2023-06-22T10:16:44;9.05;;;5.30;;
52586;SDS011;38480;52.724;6.436;2023-06-22T10:19:10;6.95;;;4.88;;
52586;SDS011;38480;52.724;6.436;2023-06-22T10:21:36;8.85;;;5.30;;
52586;SDS011;38480;52.724;6.436;2023-06-22T10:24:02;7.22;;;5.35;;
52586;SDS011;38480;52.724;6.436;2023-06-22T10:26:31;6.28;;;4.65;;
52586;SDS011;38480;52.724;6.436;2023-06-22T10:28:57;6.30;;;5.28;;
52586;SDS011;38480;52.724;6.436;2023-06-22T10:31:23;8.02;;;5.78;;
52586;SDS011;38480;52.724;6.436;2023-06-22T10:33:49;7.88;;;5.75;;
52586;SDS011;38480;52.724;6.436;2023-06-22T10:36:15;7.55;;;4.80;;
52586;SDS011;38480;52.724;6.436;2023-06-22T10:38:41;8.52;;;5.65;;
52586;SDS011;38480;52.724;6.436;2023-06-22T10:41:07;8.60;;;5.60;;
52586;SDS011;38480;52.724;6.436;2023-06-22T10:43:33;7.25;;;5.10;;
52586;SDS011;38480;52.724;6.436;2023-06-22T10:45:59;8.60;;;5.10;;
52586;SDS011;38480;52.724;6.436;2023-06-22T10:48:25;6.65;;;5.95;;
52586;SDS011;38480;52.724;6.436;2023-06-22T10:50:51;6.75;;;5.65;;
52586;SDS011;38480;52.724;6.436;2023-06-22T10:53:18;7.22;;;5.72;;
52586;SDS011;38480;52.724;6.436;2023-06-22T10:55:44;7.97;;;5.22;;
52586;SDS011;38480;52.724;6.436;2023-06-22T10:58:10;6.30;;;5.70;;
52586;SDS011;38480;52.724;6.436;2023-06-22T11:00:36;6.40;;;4.80;;
52586;SDS011;38480;52.724;6.436;2023-06-22T11:03:02;6.10;;;5.10;;
52586;SDS011;38480;52.724;6.436;2023-06-22T11:05:28;6.68;;;5.72;;
52586;SDS011;38480;52.724;6.436;2023-06-22T11:07:54;7.07;;;5.43;;
52586;SDS011;38480;52.724;6.436;2023-06-22T11:10:20;6.53;;;5.00;;
52586;SDS011;38480;52.724;6.436;2023-06-22T11:12:45;5.93;;;5.30;;
52586;SDS011;38480;52.724;6.436;2023-06-22T11:15:11;5.75;;;4.88;;
52586;SDS011;38480;52.724;6.436;2023-06-22T11:17:37;6.95;;;5.15;;
52586;SDS011;38480;52.724;6.436;2023-06-22T11:20:04;6.88;;;4.63;;
52586;SDS011;38480;52.724;6.436;2023-06-22T11:22:35;6.63;;;4.30;;
52586;SDS011;38480;52.724;6.436;2023-06-22T11:25:01;6.60;;;4.75;;
52586;SDS011;38480;52.724;6.436;2023-06-22T11:27:27;6.82;;;5.43;;
52586;SDS011;38480;52.724;6.436;2023-06-22T11:29:53;8.85;;;5.47;;
52586;SDS011;38480;52.724;6.436;2023-06-22T11:32:19;8.88;;;5.95;;
52586;SDS011;38480;52.724;6.436;2023-06-22T11:34:45;6.53;;;5.35;;
52586;SDS011;38480;52.724;6.436;2023-06-22T11:37:11;8.98;;;5.55;;
52586;SDS011;38480;52.724;6.436;2023-06-22T11:39:37;7.65;;;6.43;;
52586;SDS011;38480;52.724;6.436;2023-06-22T11:42:03;16.10;;;7.05;;
52586;SDS011;38480;52.724;6.436;2023-06-22T11:44:29;8.43;;;6.35;;
52586;SDS011;38480;52.724;6.436;2023-06-22T11:46:56;8.05;;;5.57;;
52586;SDS011;38480;52.724;6.436;2023-06-22T11:49:21;7.97;;;5.50;;
52586;SDS011;38480;52.724;6.436;2023-06-22T11:51:47;6.30;;;5.55;;
52586;SDS011;38480;52.724;6.436;2023-06-22T11:54:13;6.93;;;5.10;;
52586;SDS011;38480;52.724;6.436;2023-06-22T11:56:39;7.80;;;5.22;;
52586;SDS011;38480;52.724;6.436;2023-06-22T11:59:05;7.20;;;5.32;;
52586;SDS011;38480;52.724;6.436;2023-06-22T12:01:31;10.65;;;5.72;;
52586;SDS011;38480;52.724;6.436;2023-06-22T12:03:58;8.80;;;5.68;;
52586;SDS011;38480;52.724;6.436;2023-06-22T12:06:24;10.00;;;5.75;;
52586;SDS011;38480;52.724;6.436;2023-06-22T12:08:50;8.40;;;5.07;;
52586;SDS011;38480;52.724;6.436;2023-06-22T12:11:16;6.35;;;5.68;;
52586;SDS011;38480;52.724;6.436;2023-06-22T12:13:41;6.97;;;5.10;;
52586;SDS011;38480;52.724;6.436;2023-06-22T12:16:07;7.32;;;5.70;;
52586;SDS011;38480;52.724;6.436;2023-06-22T12:18:33;8.38;;;6.25;;
52586;SDS011;38480;52.724;6.436;2023-06-22T12:20:59;8.75;;;5.57;;
52586;SDS011;38480;52.724;6.436;2023-06-22T12:23:25;7.03;;;6.35;;
52586;SDS011;38480;52.724;6.436;2023-06-22T12:25:51;7.57;;;5.32;;
52586;SDS011;38480;52.724;6.436;2023-06-22T12:28:17;8.10;;;6.47;;
52586;SDS011;38480;52.724;6.436;2023-06-22T12:30:43;8.82;;;5.82;;
52586;SDS011;38480;52.724;6.436;2023-06-22T12:33:09;9.93;;;6.20;;
52586;SDS011;38480;52.724;6.436;2023-06-22T12:35:35;7.65;;;5.72;;
52586;SDS011;38480;52.724;6.436;2023-06-22T12:38:01;7.55;;;5.68;;
52586;SDS011;38480;52.724;6.436;2023-06-22T12:40:28;8.00;;;5.30;;
52586;SDS011;38480;52.724;6.436;2023-06-22T12:42:54;8.38;;;6.00;;
52586;SDS011;38480;52.724;6.436;2023-06-22T12:45:20;8.13;;;6.20;;
52586;SDS011;38480;52.724;6.436;2023-06-22T12:47:46;6.50;;;5.15;;
52586;SDS011;38480;52.724;6.436;2023-06-22T12:50:12;7.03;;;6.28;;
52586;SDS011;38480;52.724;6.436;2023-06-22T12:52:39;6.38;;;5.40;;
52586;SDS011;38480;52.724;6.436;2023-06-22T12:55:06;8.82;;;6.15;;
52586;SDS011;38480;52.724;6.436;2023-06-22T12:57:32;9.60;;;5.97;;
52586;SDS011;38480;52.724;6.436;2023-06-22T12:59:58;8.38;;;6.00;;
52586;SDS011;38480;52.724;6.436;2023-06-22T13:02:25;8.93;;;6.40;;
52586;SDS011;38480;52.724;6.436;2023-06-22T13:04:51;7.93;;;5.47;;
52586;SDS011;38480;52.724;6.436;2023-06-22T13:07:17;9.00;;;6.15;;
52586;SDS011;38480;52.724;6.436;2023-06-22T13:09:43;8.38;;;5.95;;
52586;SDS011;38480;52.724;6.436;2023-06-22T13:12:11;8.38;;;5.85;;
52586;SDS011;38480;52.724;6.436;2023-06-22T13:14:37;8.10;;;5.60;;
52586;SDS011;38480;52.724;6.436;2023-06-22T13:17:03;9.15;;;5.53;;
52586;SDS011;38480;52.724;6.436;2023-06-22T13:19:29;5.32;;;4.30;;
52586;SDS011;38480;52.724;6.436;2023-06-22T13:21:57;6.28;;;5.65;;
52586;SDS011;38480;52.724;6.436;2023-06-22T13:24:23;5.15;;;4.60;;
52586;SDS011;38480;52.724;6.436;2023-06-22T13:26:52;7.63;;;5.32;;
52586;SDS011;38480;52.724;6.436;2023-06-22T13:29:18;5.90;;;4.68;;
52586;SDS011;38480;52.724;6.436;2023-06-22T13:31:44;6.25;;;4.82;;
52586;SDS011;38480;52.724;6.436;2023-06-22T13:34:10;9.63;;;5.55;;
52586;SDS011;38480;52.724;6.436;2023-06-22T13:36:37;8.77;;;5.70;;
52586;SDS011;38480;52.724;6.436;2023-06-22T13:39:03;7.43;;;5.60;;
52586;SDS011;38480;52.724;6.436;2023-06-22T13:41:29;6.07;;;4.50;;
52586;SDS011;38480;52.724;6.436;2023-06-22T13:43:55;10.63;;;6.97;;
52586;SDS011;38480;52.724;6.436;2023-06-22T13:46:21;5.97;;;5.32;;
52586;SDS011;38480;52.724;6.436;2023-06-22T13:48:47;8.23;;;5.93;;
52586;SDS011;38480;52.724;6.436;2023-06-22T13:51:13;11.85;;;6.93;;
52586;SDS011;38480;52.724;6.436;2023-06-22T13:53:39;9.63;;;6.38;;
52586;SDS011;38480;52.724;6.436;2023-06-22T13:56:05;8.93;;;6.00;;
52586;SDS011;38480;52.724;6.436;2023-06-22T13:58:31;7.40;;;5.18;;
52586;SDS011;38480;52.724;6.436;2023-06-22T14:00:57;12.77;;;6.00;;
52586;SDS011;38480;52.724;6.436;2023-06-22T14:03:23;7.43;;;5.65;;
52586;SDS011;38480;52.724;6.436;2023-06-22T14:05:49;8.65;;;6.70;;
52586;SDS011;38480;52.724;6.436;2023-06-22T14:08:19;15.30;;;8.30;;
52586;SDS011;38480;52.724;6.436;2023-06-22T14:10:46;10.48;;;7.22;;
52586;SDS011;38480;52.724;6.436;2023-06-22T14:13:11;13.25;;;7.85;;
52586;SDS011;38480;52.724;6.436;2023-06-22T14:15:37;10.60;;;7.53;;
52586;SDS011;38480;52.724;6.436;2023-06-22T14:18:03;11.25;;;7.43;;
52586;SDS011;38480;52.724;6.436;2023-06-22T14:20:29;11.82;;;8.20;;
52586;SDS011;38480;52.724;6.436;2023-06-22T14:22:55;14.48;;;8.20;;
52586;SDS011;38480;52.724;6.436;2023-06-22T14:25:21;11.18;;;8.40;;
52586;SDS011;38480;52.724;6.436;2023-06-22T14:27:47;13.32;;;9.93;;
52586;SDS011;38480;52.724;6.436;2023-06-22T14:30:13;15.53;;;9.83;;
52586;SDS011;38480;52.724;6.436;2023-06-22T14:32:39;13.40;;;9.93;;